sensor_id;sensor_type;location;lat;lon;timestamp;P1;durP1;ratioP1;P2;durP2;ratioP2
41719;SDS011;27405;53.316;-6.294;2023-07-28T00:00:58;2.78;;;1.77;;
41719;SDS011;27405;53.316;-6.294;2023-07-28T00:03:24;3.83;;;1.88;;
41719;SDS011;27405;53.316;-6.294;2023-07-28T00:05:50;4.13;;;1.95;;
41719;SDS011;27405;53.316;-6.294;2023-07-28T00:08:15;5.13;;;1.50;;
41719;SDS011;27405;53.316;-6.294;2023-07-28T00:10:41;3.83;;;1.40;;
41719;SDS011;27405;53.316;-6.294;2023-07-28T00:13:08;3.60;;;1.80;;
41719;SDS011;27405;53.316;-6.294;2023-07-28T00:15:34;3.17;;;1.60;;
41719;SDS011;27405;53.316;-6.294;2023-07-28T00:18:00;4.05;;;1.70;;
41719;SDS011;27405;53.316;-6.294;2023-07-28T00:20:26;1.90;;;1.30;;
41719;SDS011;27405;53.316;-6.294;2023-07-28T00:22:53;4.28;;;1.52;;
41719;SDS011;27405;53.316;-6.294;2023-07-28T00:25:18;1.63;;;1.20;;
41719;SDS011;27405;53.316;-6.294;2023-07-28T00:27:44;2.88;;;1.30;;
41719;SDS011;27405;53.316;-6.294;2023-07-28T00:30:10;3.60;;;1.70;;
41719;SDS011;27405;53.316;-6.294;2023-07-28T00:32:37;2.65;;;1.30;;
41719;SDS011;27405;53.316;-6.294;2023-07-28T00:35:02;4.75;;;1.33;;
41719;SDS011;27405;53.316;-6.294;2023-07-28T00:37:28;1.73;;;1.30;;
41719;SDS011;27405;53.316;-6.294;2023-07-28T00:39:54;2.97;;;1.45;;
41719;SDS011;27405;53.316;-6.294;2023-07-28T00:42:20;3.55;;;1.30;;
41719;SDS011;27405;53.316;-6.294;2023-07-28T00:44:45;5.05;;;1.65;;
41719;SDS011;27405;53.316;-6.294;2023-07-28T00:47:11;5.60;;;1.42;;
41719;SDS011;27405;53.316;-6.294;2023-07-28T00:49:37;2.15;;;1.50;;
41719;SDS011;27405;53.316;-6.294;2023-07-28T00:52:06;4.53;;;1.60;;
41719;SDS011;27405;53.316;-6.294;2023-07-28T00:54:33;3.10;;;1.75;;
41719;SDS011;27405;53.316;-6.294;2023-07-28T00:56:59;7.30;;;1.77;;
41719;SDS011;27405;53.316;-6.294;2023-07-28T00:59:26;4.15;;;1.90;;
41719;SDS011;27405;53.316;-6.294;2023-07-28T01:01:52;5.47;;;1.77;;
41719;SDS011;27405;53.316;-6.294;2023-07-28T01:04:18;4.53;;;1.55;;
41719;SDS011;27405;53.316;-6.294;2023-07-28T01:06:49;1.85;;;1.13;;
41719;SDS011;27405;53.316;-6.294;2023-07-28T01:12:30;4.40;;;1.50;;
41719;SDS011;27405;53.316;-6.294;2023-07-28T01:14:56;3.00;;;1.60;;
41719;SDS011;27405;53.316;-6.294;2023-07-28T01:17:22;2.90;;;1.85;;
41719;SDS011;27405;53.316;-6.294;2023-07-28T01:19:51;4.43;;;1.88;;
41719;SDS011;27405;53.316;-6.294;2023-07-28T01:27:34;3.03;;;1.55;;
41719;SDS011;27405;53.316;-6.294;2023-07-28T01:32:28;7.40;;;1.90;;
41719;SDS011;27405;53.316;-6.294;2023-07-28T01:34:53;2.90;;;1.60;;
41719;SDS011;27405;53.316;-6.294;2023-07-28T01:37:19;4.68;;;1.90;;
41719;SDS011;27405;53.316;-6.294;2023-07-28T01:39:45;3.08;;;1.80;;
41719;SDS011;27405;53.316;-6.294;2023-07-28T01:42:10;6.15;;;1.83;;
41719;SDS011;27405;53.316;-6.294;2023-07-28T01:44:36;4.82;;;1.83;;
41719;SDS011;27405;53.316;-6.294;2023-07-28T01:47:02;5.90;;;1.98;;
41719;SDS011;27405;53.316;-6.294;2023-07-28T01:49:27;6.47;;;1.63;;
41719;SDS011;27405;53.316;-6.294;2023-07-28T01:51:53;4.75;;;1.70;;
41719;SDS011;27405;53.316;-6.294;2023-07-28T01:54:19;4.57;;;2.05;;
41719;SDS011;27405;53.316;-6.294;2023-07-28T01:56:44;7.03;;;1.73;;
41719;SDS011;27405;53.316;-6.294;2023-07-28T01:59:10;6.90;;;2.22;;
41719;SDS011;27405;53.316;-6.294;2023-07-28T02:01:36;3.55;;;1.73;;
41719;SDS011;27405;53.316;-6.294;2023-07-28T02:04:02;3.83;;;1.88;;
41719;SDS011;27405;53.316;-6.294;2023-07-28T02:06:27;6.25;;;1.77;;
41719;SDS011;27405;53.316;-6.294;2023-07-28T02:08:54;7.15;;;2.13;;
41719;SDS011;27405;53.316;-6.294;2023-07-28T02:11:20;6.63;;;1.80;;
41719;SDS011;27405;53.316;-6.294;2023-07-28T02:13:45;5.00;;;1.90;;
41719;SDS011;27405;53.316;-6.294;2023-07-28T02:16:11;6.25;;;1.85;;
41719;SDS011;27405;53.316;-6.294;2023-07-28T02:18:36;4.47;;;1.75;;
41719;SDS011;27405;53.316;-6.294;2023-07-28T02:21:02;7.18;;;2.28;;
41719;SDS011;27405;53.316;-6.294;2023-07-28T02:23:28;7.38;;;1.95;;
41719;SDS011;27405;53.316;-6.294;2023-07-28T02:25:53;6.40;;;2.05;;
41719;SDS011;27405;53.316;-6.294;2023-07-28T02:28:19;7.10;;;2.05;;
41719;SDS011;27405;53.316;-6.294;2023-07-28T02:30:45;7.03;;;2.00;;
41719;SDS011;27405;53.316;-6.294;2023-07-28T02:33:10;8.32;;;2.30;;
41719;SDS011;27405;53.316;-6.294;2023-07-28T02:35:36;7.07;;;2.03;;
41719;SDS011;27405;53.316;-6.294;2023-07-28T02:38:02;5.28;;;2.15;;
41719;SDS011;27405;53.316;-6.294;2023-07-28T02:40:27;10.82;;;2.60;;
41719;SDS011;27405;53.316;-6.294;2023-07-28T02:42:53;6.80;;;2.20;;
41719;SDS011;27405;53.316;-6.294;2023-07-28T02:45:19;4.38;;;1.90;;
41719;SDS011;27405;53.316;-6.294;2023-07-28T02:47:45;11.57;;;2.33;;
41719;SDS011;27405;53.316;-6.294;2023-07-28T02:50:10;8.20;;;2.17;;
41719;SDS011;27405;53.316;-6.294;2023-07-28T02:52:36;7.15;;;1.95;;
41719;SDS011;27405;53.316;-6.294;2023-07-28T02:55:02;5.50;;;2.00;;
41719;SDS011;27405;53.316;-6.294;2023-07-28T02:57:27;6.10;;;2.10;;
41719;SDS011;27405;53.316;-6.294;2023-07-28T02:59:53;6.13;;;2.20;;
41719;SDS011;27405;53.316;-6.294;2023-07-28T03:02:19;6.40;;;2.15;;
41719;SDS011;27405;53.316;-6.294;2023-07-28T03:04:44;9.13;;;2.35;;
41719;SDS011;27405;53.316;-6.294;2023-07-28T03:07:10;7.05;;;2.30;;
41719;SDS011;27405;53.316;-6.294;2023-07-28T03:09:36;5.63;;;1.85;;
41719;SDS011;27405;53.316;-6.294;2023-07-28T03:12:01;6.72;;;1.98;;
41719;SDS011;27405;53.316;-6.294;2023-07-28T03:14:27;7.10;;;1.80;;
41719;SDS011;27405;53.316;-6.294;2023-07-28T03:16:54;7.97;;;2.38;;
41719;SDS011;27405;53.316;-6.294;2023-07-28T03:19:20;8.30;;;2.60;;
41719;SDS011;27405;53.316;-6.294;2023-07-28T03:21:45;6.30;;;2.47;;
41719;SDS011;27405;53.316;-6.294;2023-07-28T03:24:11;9.93;;;2.72;;
41719;SDS011;27405;53.316;-6.294;2023-07-28T03:26:37;10.75;;;3.05;;
41719;SDS011;27405;53.316;-6.294;2023-07-28T03:29:02;9.88;;;2.72;;
41719;SDS011;27405;53.316;-6.294;2023-07-28T03:31:28;7.82;;;2.75;;
41719;SDS011;27405;53.316;-6.294;2023-07-28T03:33:54;9.80;;;2.92;;
41719;SDS011;27405;53.316;-6.294;2023-07-28T03:36:19;7.68;;;2.58;;
41719;SDS011;27405;53.316;-6.294;2023-07-28T03:38:45;9.20;;;2.50;;
41719;SDS011;27405;53.316;-6.294;2023-07-28T03:41:12;7.53;;;2.63;;
41719;SDS011;27405;53.316;-6.294;2023-07-28T03:43:37;6.78;;;2.45;;
41719;SDS011;27405;53.316;-6.294;2023-07-28T03:46:03;8.82;;;2.92;;
41719;SDS011;27405;53.316;-6.294;2023-07-28T03:48:29;6.43;;;2.80;;
41719;SDS011;27405;53.316;-6.294;2023-07-28T03:50:55;9.40;;;3.10;;
41719;SDS011;27405;53.316;-6.294;2023-07-28T03:53:20;11.93;;;3.10;;
41719;SDS011;27405;53.316;-6.294;2023-07-28T03:55:46;12.27;;;4.35;;
41719;SDS011;27405;53.316;-6.294;2023-07-28T03:58:12;10.20;;;4.53;;
41719;SDS011;27405;53.316;-6.294;2023-07-28T04:00:37;10.90;;;4.70;;
41719;SDS011;27405;53.316;-6.294;2023-07-28T04:03:03;8.77;;;3.88;;
41719;SDS011;27405;53.316;-6.294;2023-07-28T04:05:28;10.65;;;3.92;;
41719;SDS011;27405;53.316;-6.294;2023-07-28T04:07:54;12.00;;;3.83;;
41719;SDS011;27405;53.316;-6.294;2023-07-28T04:10:20;9.05;;;3.88;;
41719;SDS011;27405;53.316;-6.294;2023-07-28T04:12:46;10.07;;;3.60;;
41719;SDS011;27405;53.316;-6.294;2023-07-28T04:15:11;5.85;;;2.97;;
41719;SDS011;27405;53.316;-6.294;2023-07-28T04:17:37;5.68;;;2.83;;
41719;SDS011;27405;53.316;-6.294;2023-07-28T04:20:03;7.13;;;2.05;;
41719;SDS011;27405;53.316;-6.294;2023-07-28T04:22:29;6.57;;;2.50;;
41719;SDS011;27405;53.316;-6.294;2023-07-28T04:24:54;5.05;;;1.85;;
41719;SDS011;27405;53.316;-6.294;2023-07-28T04:27:20;4.75;;;1.83;;
41719;SDS011;27405;53.316;-6.294;2023-07-28T04:29:46;6.47;;;2.08;;
41719;SDS011;27405;53.316;-6.294;2023-07-28T04:32:12;6.55;;;1.73;;
41719;SDS011;27405;53.316;-6.294;2023-07-28T04:34:37;3.67;;;1.70;;
41719;SDS011;27405;53.316;-6.294;2023-07-28T04:37:03;5.95;;;1.90;;
41719;SDS011;27405;53.316;-6.294;2023-07-28T04:39:29;3.38;;;1.45;;
41719;SDS011;27405;53.316;-6.294;2023-07-28T04:41:54;4.35;;;1.85;;
41719;SDS011;27405;53.316;-6.294;2023-07-28T04:44:20;4.43;;;1.50;;
41719;SDS011;27405;53.316;-6.294;2023-07-28T04:46:46;5.55;;;1.60;;
41719;SDS011;27405;53.316;-6.294;2023-07-28T04:49:13;4.57;;;1.77;;
41719;SDS011;27405;53.316;-6.294;2023-07-28T04:51:38;4.10;;;1.60;;
41719;SDS011;27405;53.316;-6.294;2023-07-28T04:54:04;3.80;;;1.50;;
41719;SDS011;27405;53.316;-6.294;2023-07-28T04:56:30;2.90;;;1.25;;
41719;SDS011;27405;53.316;-6.294;2023-07-28T04:58:55;6.25;;;1.80;;
41719;SDS011;27405;53.316;-6.294;2023-07-28T05:01:23;3.73;;;1.60;;
41719;SDS011;27405;53.316;-6.294;2023-07-28T05:03:49;4.60;;;1.95;;
41719;SDS011;27405;53.316;-6.294;2023-07-28T05:06:15;4.78;;;1.73;;
41719;SDS011;27405;53.316;-6.294;2023-07-28T05:08:40;4.65;;;1.77;;
41719;SDS011;27405;53.316;-6.294;2023-07-28T05:11:06;4.50;;;1.80;;
41719;SDS011;27405;53.316;-6.294;2023-07-28T05:13:32;5.20;;;1.70;;
41719;SDS011;27405;53.316;-6.294;2023-07-28T05:15:57;3.88;;;1.73;;
41719;SDS011;27405;53.316;-6.294;2023-07-28T05:18:24;5.57;;;1.80;;
41719;SDS011;27405;53.316;-6.294;2023-07-28T05:20:50;6.20;;;1.90;;
41719;SDS011;27405;53.316;-6.294;2023-07-28T05:23:16;6.32;;;2.45;;
41719;SDS011;27405;53.316;-6.294;2023-07-28T05:25:41;5.97;;;2.10;;
41719;SDS011;27405;53.316;-6.294;2023-07-28T05:28:07;10.52;;;2.90;;
41719;SDS011;27405;53.316;-6.294;2023-07-28T05:30:33;12.55;;;3.13;;
41719;SDS011;27405;53.316;-6.294;2023-07-28T05:32:58;10.55;;;2.92;;
41719;SDS011;27405;53.316;-6.294;2023-07-28T05:35:24;6.28;;;2.80;;
41719;SDS011;27405;53.316;-6.294;2023-07-28T05:37:50;10.02;;;3.30;;
41719;SDS011;27405;53.316;-6.294;2023-07-28T05:40:15;8.95;;;2.88;;
41719;SDS011;27405;53.316;-6.294;2023-07-28T05:42:41;11.05;;;2.97;;
41719;SDS011;27405;53.316;-6.294;2023-07-28T05:45:07;9.98;;;2.90;;
41719;SDS011;27405;53.316;-6.294;2023-07-28T05:47:33;9.60;;;2.58;;
41719;SDS011;27405;53.316;-6.294;2023-07-28T05:49:59;9.43;;;2.60;;
41719;SDS011;27405;53.316;-6.294;2023-07-28T05:52:25;8.88;;;2.47;;
41719;SDS011;27405;53.316;-6.294;2023-07-28T05:54:51;4.95;;;2.15;;
41719;SDS011;27405;53.316;-6.294;2023-07-28T05:57:16;5.03;;;1.80;;
41719;SDS011;27405;53.316;-6.294;2023-07-28T05:59:42;5.80;;;2.10;;
41719;SDS011;27405;53.316;-6.294;2023-07-28T06:02:08;7.72;;;1.80;;
41719;SDS011;27405;53.316;-6.294;2023-07-28T06:04:33;7.28;;;1.92;;
41719;SDS011;27405;53.316;-6.294;2023-07-28T06:06:59;5.68;;;2.10;;
41719;SDS011;27405;53.316;-6.294;2023-07-28T06:09:24;6.97;;;1.90;;
41719;SDS011;27405;53.316;-6.294;2023-07-28T06:11:50;8.43;;;1.83;;
41719;SDS011;27405;53.316;-6.294;2023-07-28T06:14:16;9.30;;;4.00;;
41719;SDS011;27405;53.316;-6.294;2023-07-28T06:16:41;4.93;;;1.90;;
41719;SDS011;27405;53.316;-6.294;2023-07-28T06:19:07;7.35;;;1.90;;
41719;SDS011;27405;53.316;-6.294;2023-07-28T06:21:33;6.70;;;2.03;;
41719;SDS011;27405;53.316;-6.294;2023-07-28T06:23:59;5.63;;;2.00;;
41719;SDS011;27405;53.316;-6.294;2023-07-28T06:26:25;5.43;;;1.90;;
41719;SDS011;27405;53.316;-6.294;2023-07-28T06:28:50;5.65;;;1.88;;
41719;SDS011;27405;53.316;-6.294;2023-07-28T06:31:16;5.78;;;1.73;;
41719;SDS011;27405;53.316;-6.294;2023-07-28T06:33:42;3.60;;;1.70;;
41719;SDS011;27405;53.316;-6.294;2023-07-28T06:36:07;3.50;;;1.77;;
41719;SDS011;27405;53.316;-6.294;2023-07-28T06:38:33;6.28;;;1.70;;
41719;SDS011;27405;53.316;-6.294;2023-07-28T06:40:59;7.13;;;1.80;;
41719;SDS011;27405;53.316;-6.294;2023-07-28T06:43:25;3.95;;;1.58;;
41719;SDS011;27405;53.316;-6.294;2023-07-28T06:45:52;4.57;;;1.90;;
41719;SDS011;27405;53.316;-6.294;2023-07-28T06:48:18;3.90;;;1.73;;
41719;SDS011;27405;53.316;-6.294;2023-07-28T06:50:44;3.85;;;1.60;;
41719;SDS011;27405;53.316;-6.294;2023-07-28T06:53:09;5.00;;;1.90;;
41719;SDS011;27405;53.316;-6.294;2023-07-28T06:55:35;4.55;;;2.03;;
41719;SDS011;27405;53.316;-6.294;2023-07-28T06:58:04;5.13;;;1.88;;
41719;SDS011;27405;53.316;-6.294;2023-07-28T07:00:30;4.93;;;1.63;;
41719;SDS011;27405;53.316;-6.294;2023-07-28T07:02:56;5.30;;;1.83;;
41719;SDS011;27405;53.316;-6.294;2023-07-28T07:05:22;7.10;;;2.50;;
41719;SDS011;27405;53.316;-6.294;2023-07-28T07:07:48;6.85;;;1.90;;
41719;SDS011;27405;53.316;-6.294;2023-07-28T07:10:14;4.85;;;1.73;;
41719;SDS011;27405;53.316;-6.294;2023-07-28T07:12:40;2.85;;;1.80;;
41719;SDS011;27405;53.316;-6.294;2023-07-28T07:15:06;5.35;;;2.00;;
41719;SDS011;27405;53.316;-6.294;2023-07-28T07:17:32;6.32;;;1.85;;
41719;SDS011;27405;53.316;-6.294;2023-07-28T07:19:58;4.43;;;1.88;;
41719;SDS011;27405;53.316;-6.294;2023-07-28T07:22:24;7.28;;;2.17;;
41719;SDS011;27405;53.316;-6.294;2023-07-28T07:24:50;4.25;;;1.80;;
41719;SDS011;27405;53.316;-6.294;2023-07-28T07:27:15;6.85;;;1.73;;
41719;SDS011;27405;53.316;-6.294;2023-07-28T07:29:41;5.45;;;1.60;;
41719;SDS011;27405;53.316;-6.294;2023-07-28T07:32:07;6.88;;;1.60;;
41719;SDS011;27405;53.316;-6.294;2023-07-28T07:34:34;4.80;;;1.40;;
41719;SDS011;27405;53.316;-6.294;2023-07-28T07:37:02;4.75;;;1.63;;
41719;SDS011;27405;53.316;-6.294;2023-07-28T07:39:28;2.95;;;1.50;;
41719;SDS011;27405;53.316;-6.294;2023-07-28T07:41:54;4.97;;;1.40;;
41719;SDS011;27405;53.316;-6.294;2023-07-28T07:44:19;4.53;;;1.38;;
41719;SDS011;27405;53.316;-6.294;2023-07-28T07:46:45;3.95;;;1.20;;
41719;SDS011;27405;53.316;-6.294;2023-07-28T07:49:11;6.93;;;1.52;;
41719;SDS011;27405;53.316;-6.294;2023-07-28T07:51:36;2.90;;;1.17;;
41719;SDS011;27405;53.316;-6.294;2023-07-28T07:54:02;1.95;;;1.20;;
41719;SDS011;27405;53.316;-6.294;2023-07-28T07:56:28;5.45;;;1.63;;
41719;SDS011;27405;53.316;-6.294;2023-07-28T07:58:53;2.45;;;1.30;;
41719;SDS011;27405;53.316;-6.294;2023-07-28T08:01:19;5.03;;;1.40;;
41719;SDS011;27405;53.316;-6.294;2023-07-28T08:03:45;6.35;;;1.58;;
41719;SDS011;27405;53.316;-6.294;2023-07-28T08:06:10;3.78;;;1.20;;
41719;SDS011;27405;53.316;-6.294;2023-07-28T08:08:37;4.60;;;1.50;;
41719;SDS011;27405;53.316;-6.294;2023-07-28T08:11:03;3.00;;;1.13;;
41719;SDS011;27405;53.316;-6.294;2023-07-28T08:13:29;5.93;;;1.60;;
41719;SDS011;27405;53.316;-6.294;2023-07-28T08:15:55;6.63;;;1.40;;
41719;SDS011;27405;53.316;-6.294;2023-07-28T08:18:20;4.72;;;1.70;;
41719;SDS011;27405;53.316;-6.294;2023-07-28T08:20:46;2.95;;;1.10;;
41719;SDS011;27405;53.316;-6.294;2023-07-28T08:23:12;2.85;;;1.13;;
41719;SDS011;27405;53.316;-6.294;2023-07-28T08:25:37;5.13;;;1.30;;
41719;SDS011;27405;53.316;-6.294;2023-07-28T08:28:03;5.78;;;1.42;;
41719;SDS011;27405;53.316;-6.294;2023-07-28T08:30:29;3.75;;;1.13;;
41719;SDS011;27405;53.316;-6.294;2023-07-28T08:32:56;2.05;;;1.13;;
41719;SDS011;27405;53.316;-6.294;2023-07-28T08:35:22;6.30;;;1.58;;
41719;SDS011;27405;53.316;-6.294;2023-07-28T08:37:48;3.90;;;1.20;;
41719;SDS011;27405;53.316;-6.294;2023-07-28T08:40:14;3.00;;;1.48;;
41719;SDS011;27405;53.316;-6.294;2023-07-28T08:42:40;4.40;;;1.38;;
41719;SDS011;27405;53.316;-6.294;2023-07-28T08:45:06;6.45;;;1.40;;
41719;SDS011;27405;53.316;-6.294;2023-07-28T08:47:35;2.25;;;1.20;;
41719;SDS011;27405;53.316;-6.294;2023-07-28T08:50:02;3.10;;;1.15;;
41719;SDS011;27405;53.316;-6.294;2023-07-28T08:52:28;3.20;;;1.15;;
41719;SDS011;27405;53.316;-6.294;2023-07-28T08:54:54;3.22;;;1.25;;
41719;SDS011;27405;53.316;-6.294;2023-07-28T08:57:19;3.58;;;1.58;;
41719;SDS011;27405;53.316;-6.294;2023-07-28T08:59:45;3.47;;;1.40;;
41719;SDS011;27405;53.316;-6.294;2023-07-28T09:04:41;5.85;;;1.38;;
41719;SDS011;27405;53.316;-6.294;2023-07-28T09:07:08;2.42;;;1.02;;
41719;SDS011;27405;53.316;-6.294;2023-07-28T09:09:34;4.43;;;1.10;;
41719;SDS011;27405;53.316;-6.294;2023-07-28T09:12:02;1.92;;;1.00;;
41719;SDS011;27405;53.316;-6.294;2023-07-28T09:14:29;3.53;;;1.20;;
41719;SDS011;27405;53.316;-6.294;2023-07-28T09:16:55;1.98;;;1.08;;
41719;SDS011;27405;53.316;-6.294;2023-07-28T09:19:21;3.20;;;1.17;;
41719;SDS011;27405;53.316;-6.294;2023-07-28T09:21:56;1.80;;;1.05;;
41719;SDS011;27405;53.316;-6.294;2023-07-28T09:24:29;2.83;;;0.93;;
41719;SDS011;27405;53.316;-6.294;2023-07-28T09:26:58;2.85;;;0.90;;
41719;SDS011;27405;53.316;-6.294;2023-07-28T09:29:25;1.90;;;1.00;;
41719;SDS011;27405;53.316;-6.294;2023-07-28T09:32:02;2.05;;;0.88;;
41719;SDS011;27405;53.316;-6.294;2023-07-28T09:34:29;1.75;;;1.20;;
41719;SDS011;27405;53.316;-6.294;2023-07-28T09:36:55;2.33;;;0.90;;
41719;SDS011;27405;53.316;-6.294;2023-07-28T09:39:22;2.42;;;1.15;;
41719;SDS011;27405;53.316;-6.294;2023-07-28T09:41:48;4.72;;;0.90;;
41719;SDS011;27405;53.316;-6.294;2023-07-28T09:44:14;2.50;;;1.02;;
41719;SDS011;27405;53.316;-6.294;2023-07-28T09:46:48;2.78;;;1.40;;
41719;SDS011;27405;53.316;-6.294;2023-07-28T09:49:28;2.75;;;1.02;;
41719;SDS011;27405;53.316;-6.294;2023-07-28T09:52:03;2.00;;;1.25;;
41719;SDS011;27405;53.316;-6.294;2023-07-28T09:54:30;3.00;;;1.20;;
41719;SDS011;27405;53.316;-6.294;2023-07-28T09:57:03;1.42;;;1.13;;
41719;SDS011;27405;53.316;-6.294;2023-07-28T09:59:40;2.90;;;1.10;;
41719;SDS011;27405;53.316;-6.294;2023-07-28T10:02:07;2.60;;;1.20;;
41719;SDS011;27405;53.316;-6.294;2023-07-28T10:04:33;3.25;;;1.23;;
41719;SDS011;27405;53.316;-6.294;2023-07-28T10:07:00;1.92;;;0.95;;
41719;SDS011;27405;53.316;-6.294;2023-07-28T10:11:55;2.72;;;1.05;;
41719;SDS011;27405;53.316;-6.294;2023-07-28T10:14:25;2.85;;;1.05;;
41719;SDS011;27405;53.316;-6.294;2023-07-28T10:16:56;2.08;;;1.20;;
41719;SDS011;27405;53.316;-6.294;2023-07-28T10:19:24;1.88;;;0.90;;
41719;SDS011;27405;53.316;-6.294;2023-07-28T10:22:02;2.67;;;1.05;;
41719;SDS011;27405;53.316;-6.294;2023-07-28T10:24:51;1.15;;;0.93;;
41719;SDS011;27405;53.316;-6.294;2023-07-28T10:29:59;1.67;;;0.90;;
41719;SDS011;27405;53.316;-6.294;2023-07-28T10:32:29;2.28;;;1.08;;
41719;SDS011;27405;53.316;-6.294;2023-07-28T10:35:15;1.45;;;0.93;;
41719;SDS011;27405;53.316;-6.294;2023-07-28T10:37:49;2.67;;;1.40;;
41719;SDS011;27405;53.316;-6.294;2023-07-28T10:42:53;2.63;;;0.90;;
41719;SDS011;27405;53.316;-6.294;2023-07-28T10:45:19;1.58;;;1.10;;
41719;SDS011;27405;53.316;-6.294;2023-07-28T10:47:47;1.80;;;1.02;;
41719;SDS011;27405;53.316;-6.294;2023-07-28T10:50:13;1.98;;;1.08;;
41719;SDS011;27405;53.316;-6.294;2023-07-28T10:52:40;2.10;;;0.90;;
41719;SDS011;27405;53.316;-6.294;2023-07-28T10:55:16;1.48;;;0.65;;
41719;SDS011;27405;53.316;-6.294;2023-07-28T10:57:43;2.78;;;1.13;;
41719;SDS011;27405;53.316;-6.294;2023-07-28T11:00:11;1.52;;;0.82;;
41719;SDS011;27405;53.316;-6.294;2023-07-28T11:02:41;0.93;;;0.60;;
41719;SDS011;27405;53.316;-6.294;2023-07-28T11:05:11;2.20;;;0.88;;
41719;SDS011;27405;53.316;-6.294;2023-07-28T11:07:42;1.13;;;0.77;;
41719;SDS011;27405;53.316;-6.294;2023-07-28T11:10:11;3.97;;;0.98;;
41719;SDS011;27405;53.316;-6.294;2023-07-28T11:12:40;2.60;;;0.65;;
41719;SDS011;27405;53.316;-6.294;2023-07-28T11:15:11;1.40;;;0.40;;
41719;SDS011;27405;53.316;-6.294;2023-07-28T11:17:38;0.70;;;0.70;;
41719;SDS011;27405;53.316;-6.294;2023-07-28T11:20:27;0.57;;;0.50;;
41719;SDS011;27405;53.316;-6.294;2023-07-28T11:25:19;0.50;;;0.40;;
41719;SDS011;27405;53.316;-6.294;2023-07-28T11:27:46;1.33;;;0.68;;
41719;SDS011;27405;53.316;-6.294;2023-07-28T11:30:12;1.15;;;0.65;;
41719;SDS011;27405;53.316;-6.294;2023-07-28T11:32:41;1.45;;;0.60;;
41719;SDS011;27405;53.316;-6.294;2023-07-28T11:37:35;0.80;;;0.77;;
41719;SDS011;27405;53.316;-6.294;2023-07-28T11:40:02;0.68;;;0.50;;
41719;SDS011;27405;53.316;-6.294;2023-07-28T11:42:35;2.08;;;0.80;;
41719;SDS011;27405;53.316;-6.294;2023-07-28T11:45:05;2.30;;;0.93;;
41719;SDS011;27405;53.316;-6.294;2023-07-28T11:47:32;4.07;;;2.10;;
41719;SDS011;27405;53.316;-6.294;2023-07-28T11:49:58;2.65;;;0.82;;
41719;SDS011;27405;53.316;-6.294;2023-07-28T11:52:32;4.28;;;1.85;;
41719;SDS011;27405;53.316;-6.294;2023-07-28T11:55:00;5.22;;;1.65;;
41719;SDS011;27405;53.316;-6.294;2023-07-28T11:57:26;2.83;;;1.05;;
41719;SDS011;27405;53.316;-6.294;2023-07-28T11:59:55;2.17;;;1.00;;
41719;SDS011;27405;53.316;-6.294;2023-07-28T12:02:28;1.05;;;0.70;;
41719;SDS011;27405;53.316;-6.294;2023-07-28T12:04:56;2.78;;;1.20;;
41719;SDS011;27405;53.316;-6.294;2023-07-28T12:07:29;1.02;;;0.88;;
41719;SDS011;27405;53.316;-6.294;2023-07-28T12:09:56;4.22;;;1.13;;
41719;SDS011;27405;53.316;-6.294;2023-07-28T12:12:27;4.07;;;1.50;;
41719;SDS011;27405;53.316;-6.294;2023-07-28T12:14:54;5.03;;;1.00;;
41719;SDS011;27405;53.316;-6.294;2023-07-28T12:17:22;3.30;;;1.10;;
41719;SDS011;27405;53.316;-6.294;2023-07-28T12:22:40;2.08;;;0.82;;
41719;SDS011;27405;53.316;-6.294;2023-07-28T12:25:07;2.55;;;1.00;;
41719;SDS011;27405;53.316;-6.294;2023-07-28T12:27:33;1.95;;;0.90;;
41719;SDS011;27405;53.316;-6.294;2023-07-28T12:30:00;2.28;;;1.20;;
41719;SDS011;27405;53.316;-6.294;2023-07-28T12:32:26;2.08;;;1.40;;
41719;SDS011;27405;53.316;-6.294;2023-07-28T12:34:52;4.70;;;1.20;;
41719;SDS011;27405;53.316;-6.294;2023-07-28T12:37:18;3.97;;;1.33;;
41719;SDS011;27405;53.316;-6.294;2023-07-28T12:39:44;1.85;;;1.08;;
41719;SDS011;27405;53.316;-6.294;2023-07-28T12:42:11;3.90;;;1.35;;
41719;SDS011;27405;53.316;-6.294;2023-07-28T12:44:37;4.60;;;1.67;;
41719;SDS011;27405;53.316;-6.294;2023-07-28T12:47:03;3.63;;;1.40;;
41719;SDS011;27405;53.316;-6.294;2023-07-28T12:49:30;2.63;;;1.27;;
41719;SDS011;27405;53.316;-6.294;2023-07-28T12:51:56;5.22;;;1.50;;
41719;SDS011;27405;53.316;-6.294;2023-07-28T12:54:26;2.45;;;1.10;;
41719;SDS011;27405;53.316;-6.294;2023-07-28T12:56:54;3.03;;;1.42;;
41719;SDS011;27405;53.316;-6.294;2023-07-28T13:01:46;5.88;;;1.90;;
41719;SDS011;27405;53.316;-6.294;2023-07-28T13:04:12;2.75;;;1.45;;
41719;SDS011;27405;53.316;-6.294;2023-07-28T13:06:38;3.10;;;1.52;;
41719;SDS011;27405;53.316;-6.294;2023-07-28T13:09:06;2.87;;;1.57;;
41719;SDS011;27405;53.316;-6.294;2023-07-28T13:11:33;4.95;;;1.63;;
41719;SDS011;27405;53.316;-6.294;2023-07-28T13:13:59;4.88;;;1.40;;
41719;SDS011;27405;53.316;-6.294;2023-07-28T13:16:25;4.93;;;1.60;;
41719;SDS011;27405;53.316;-6.294;2023-07-28T13:18:50;5.30;;;1.52;;
41719;SDS011;27405;53.316;-6.294;2023-07-28T13:21:17;4.05;;;1.30;;
41719;SDS011;27405;53.316;-6.294;2023-07-28T13:23:42;2.40;;;1.02;;
41719;SDS011;27405;53.316;-6.294;2023-07-28T13:26:08;4.53;;;1.30;;
41719;SDS011;27405;53.316;-6.294;2023-07-28T13:28:34;1.60;;;1.13;;
41719;SDS011;27405;53.316;-6.294;2023-07-28T13:31:03;2.08;;;1.05;;
41719;SDS011;27405;53.316;-6.294;2023-07-28T13:33:29;4.68;;;1.10;;
41719;SDS011;27405;53.316;-6.294;2023-07-28T13:35:56;3.38;;;1.13;;
41719;SDS011;27405;53.316;-6.294;2023-07-28T13:38:21;3.58;;;1.13;;
41719;SDS011;27405;53.316;-6.294;2023-07-28T13:40:47;5.55;;;1.23;;
41719;SDS011;27405;53.316;-6.294;2023-07-28T13:43:13;2.88;;;1.27;;
41719;SDS011;27405;53.316;-6.294;2023-07-28T13:45:39;7.47;;;1.25;;
41719;SDS011;27405;53.316;-6.294;2023-07-28T13:48:05;6.25;;;1.60;;
41719;SDS011;27405;53.316;-6.294;2023-07-28T13:50:30;2.30;;;1.20;;
41719;SDS011;27405;53.316;-6.294;2023-07-28T13:52:56;3.13;;;1.00;;
41719;SDS011;27405;53.316;-6.294;2023-07-28T13:55:22;1.30;;;0.70;;
41719;SDS011;27405;53.316;-6.294;2023-07-28T13:57:48;3.65;;;1.15;;
41719;SDS011;27405;53.316;-6.294;2023-07-28T14:00:14;1.65;;;1.00;;
41719;SDS011;27405;53.316;-6.294;2023-07-28T14:02:40;1.95;;;1.10;;
41719;SDS011;27405;53.316;-6.294;2023-07-28T14:05:06;2.67;;;1.08;;
41719;SDS011;27405;53.316;-6.294;2023-07-28T14:07:32;1.70;;;0.95;;
41719;SDS011;27405;53.316;-6.294;2023-07-28T14:10:02;3.20;;;1.17;;
41719;SDS011;27405;53.316;-6.294;2023-07-28T14:12:28;2.50;;;1.02;;
41719;SDS011;27405;53.316;-6.294;2023-07-28T14:14:53;2.75;;;1.10;;
41719;SDS011;27405;53.316;-6.294;2023-07-28T14:17:19;3.92;;;1.40;;
41719;SDS011;27405;53.316;-6.294;2023-07-28T14:19:45;3.97;;;1.40;;
41719;SDS011;27405;53.316;-6.294;2023-07-28T14:22:11;3.00;;;1.50;;
41719;SDS011;27405;53.316;-6.294;2023-07-28T14:24:37;3.08;;;1.20;;
41719;SDS011;27405;53.316;-6.294;2023-07-28T14:27:03;3.72;;;1.40;;
41719;SDS011;27405;53.316;-6.294;2023-07-28T14:29:29;3.33;;;1.25;;
41719;SDS011;27405;53.316;-6.294;2023-07-28T14:31:55;4.70;;;1.50;;
41719;SDS011;27405;53.316;-6.294;2023-07-28T14:34:21;3.05;;;1.20;;
41719;SDS011;27405;53.316;-6.294;2023-07-28T14:36:47;3.42;;;1.83;;
41719;SDS011;27405;53.316;-6.294;2023-07-28T14:39:13;6.15;;;1.50;;
41719;SDS011;27405;53.316;-6.294;2023-07-28T14:41:39;3.03;;;1.10;;
41719;SDS011;27405;53.316;-6.294;2023-07-28T14:44:04;3.92;;;1.48;;
41719;SDS011;27405;53.316;-6.294;2023-07-28T14:46:30;2.58;;;1.20;;
41719;SDS011;27405;53.316;-6.294;2023-07-28T14:48:56;2.00;;;1.00;;
41719;SDS011;27405;53.316;-6.294;2023-07-28T14:51:22;3.30;;;1.05;;
41719;SDS011;27405;53.316;-6.294;2023-07-28T14:53:48;2.25;;;1.08;;
41719;SDS011;27405;53.316;-6.294;2023-07-28T14:56:14;2.38;;;1.42;;
41719;SDS011;27405;53.316;-6.294;2023-07-28T14:58:41;2.72;;;1.05;;
41719;SDS011;27405;53.316;-6.294;2023-07-28T15:01:07;3.08;;;1.20;;